createdAt,value
2023-05-20T00:01:41.532Z,99.90
2023-05-20T00:04:08.643Z,99.90
2023-05-20T00:06:35.691Z,99.90
2023-05-20T00:09:02.905Z,99.90
2023-05-20T00:11:29.816Z,99.90
2023-05-20T00:13:56.676Z,99.90
2023-05-20T00:16:23.669Z,99.90
2023-05-20T00:18:50.689Z,99.90
2023-05-20T00:21:17.579Z,99.90
2023-05-20T00:23:44.570Z,99.90
2023-05-20T00:26:11.514Z,99.90
2023-05-20T00:28:39.194Z,99.90
2023-05-20T00:31:06.053Z,99.90
2023-05-20T00:33:32.951Z,99.90
2023-05-20T00:35:59.857Z,99.90
2023-05-20T00:38:26.837Z,99.90
2023-05-20T00:40:53.710Z,99.90
2023-05-20T00:43:20.799Z,99.90
2023-05-20T00:45:48.175Z,99.90
2023-05-20T00:48:15.386Z,99.90
2023-05-20T00:50:42.401Z,99.90
2023-05-20T00:53:10.311Z,99.90
2023-05-20T00:55:37.952Z,99.90
2023-05-20T00:58:05.904Z,99.90
2023-05-20T01:00:33.377Z,99.90
2023-05-20T01:03:01.527Z,99.90
2023-05-20T01:05:28.541Z,99.90
2023-05-20T01:07:55.654Z,99.90
2023-05-20T01:10:27.275Z,99.90
2023-05-20T01:12:56.967Z,99.90
2023-05-20T01:15:28.221Z,99.90
2023-05-20T01:18:06.089Z,99.90
2023-05-20T01:20:33.843Z,99.90
2023-05-20T01:23:00.814Z,99.90
2023-05-20T01:25:27.769Z,99.90
2023-05-20T01:27:57.704Z,99.90
2023-05-20T01:30:30.685Z,99.90
2023-05-20T01:33:05.513Z,99.90
2023-05-20T01:35:32.955Z,99.90
2023-05-20T01:38:01.407Z,99.90
2023-05-20T01:40:29.182Z,99.90
2023-05-20T01:42:58.220Z,99.90
2023-05-20T01:45:26.055Z,99.90
2023-05-20T01:47:53.175Z,99.90
2023-05-20T01:50:20.104Z,99.90
2023-05-20T01:52:47.372Z,99.90
2023-05-20T01:55:14.294Z,99.90
2023-05-20T01:57:42.100Z,99.90
2023-05-20T02:00:11.034Z,99.90
2023-05-20T02:02:41.360Z,99.90
2023-05-20T02:05:11.119Z,99.90
2023-05-20T02:07:38.040Z,99.90
2023-05-20T02:10:05.630Z,99.90
2023-05-20T02:12:32.529Z,99.90
2023-05-20T02:14:59.457Z,99.90
2023-05-20T02:17:26.894Z,99.90
2023-05-20T02:19:53.869Z,99.90
2023-05-20T02:22:20.882Z,99.90
2023-05-20T02:24:47.805Z,99.90
2023-05-20T02:27:16.324Z,99.90
2023-05-20T02:29:44.392Z,99.90
2023-05-20T02:32:12.636Z,99.90
2023-05-20T02:34:39.603Z,99.90
2023-05-20T02:37:06.576Z,99.90
2023-05-20T02:39:33.410Z,99.90
2023-05-20T02:42:00.229Z,99.90
2023-05-20T02:44:27.161Z,99.90
2023-05-20T02:46:54.963Z,99.90
2023-05-20T02:49:21.956Z,99.90
2023-05-20T02:51:48.854Z,99.90
2023-05-20T02:54:16.500Z,99.90
2023-05-20T02:56:43.419Z,99.90
2023-05-20T02:59:10.293Z,99.90
2023-05-20T03:01:37.145Z,99.90
2023-05-20T03:04:04.722Z,99.90
2023-05-20T03:06:34.335Z,99.90
2023-05-20T03:09:01.579Z,99.90
2023-05-20T03:11:29.875Z,99.90
2023-05-20T03:13:56.715Z,99.90
2023-05-20T03:16:25.236Z,99.90
2023-05-20T03:18:52.271Z,99.90
2023-05-20T03:21:19.667Z,99.90
2023-05-20T03:23:46.927Z,99.90
2023-05-20T03:26:13.915Z,99.90
2023-05-20T03:28:41.311Z,99.90
2023-05-20T03:31:09.255Z,99.90
2023-05-20T03:33:36.158Z,99.90
2023-05-20T03:36:04.100Z,99.90
2023-05-20T03:38:31.146Z,99.90
2023-05-20T03:40:58.002Z,99.90
2023-05-20T03:43:25.669Z,99.90
2023-05-20T03:45:52.638Z,99.90
2023-05-20T03:48:20.246Z,99.90
2023-05-20T03:50:47.301Z,99.90
2023-05-20T03:53:14.201Z,99.90
2023-05-20T03:55:42.460Z,99.90
2023-05-20T03:58:10.950Z,99.90
2023-05-20T04:00:37.895Z,99.90
2023-05-20T04:03:05.899Z,99.90
2023-05-20T04:05:33.399Z,99.90
2023-05-20T04:08:04.914Z,99.90
2023-05-20T04:10:34.533Z,99.90
2023-05-20T04:13:01.572Z,99.90
2023-05-20T04:15:29.767Z,99.90
2023-05-20T04:17:58.420Z,99.90
2023-05-20T04:20:25.432Z,99.90
2023-05-20T04:22:55.329Z,99.90
2023-05-20T04:25:22.586Z,99.90
2023-05-20T04:27:50.097Z,99.90
2023-05-20T04:30:18.621Z,99.90
2023-05-20T04:32:45.793Z,99.90
2023-05-20T04:35:13.886Z,99.90
2023-05-20T04:37:47.632Z,99.90
2023-05-20T04:40:15.080Z,99.90
2023-05-20T04:42:43.636Z,99.90
2023-05-20T04:45:12.462Z,99.90
2023-05-20T04:47:41.895Z,99.90
2023-05-20T04:50:16.251Z,99.90
2023-05-20T04:52:43.756Z,99.90
2023-05-20T04:55:12.023Z,99.90
2023-05-20T04:57:42.497Z,99.90
2023-05-20T05:00:13.588Z,99.90
2023-05-20T05:02:41.506Z,99.90
2023-05-20T05:05:08.973Z,99.90
2023-05-20T05:07:36.142Z,99.90
2023-05-20T05:10:03.244Z,99.90
2023-05-20T05:12:31.756Z,99.90
2023-05-20T05:14:59.399Z,99.90
2023-05-20T05:17:28.862Z,99.90
2023-05-20T05:20:00.114Z,99.90
2023-05-20T05:22:33.900Z,99.90
2023-05-20T05:25:07.460Z,99.90
2023-05-20T05:27:37.941Z,99.90
2023-05-20T05:30:06.288Z,99.90
2023-05-20T05:32:33.627Z,99.90
2023-05-20T05:35:00.595Z,99.90
2023-05-20T05:37:28.624Z,99.90
2023-05-20T05:39:55.646Z,99.90
2023-05-20T05:42:23.329Z,99.90
2023-05-20T05:44:51.980Z,99.90
2023-05-20T05:47:19.454Z,99.90
2023-05-20T05:49:47.616Z,99.90
2023-05-20T05:52:14.512Z,99.90
2023-05-20T05:54:42.649Z,99.90
2023-05-20T05:57:12.006Z,99.90
2023-05-20T05:59:39.054Z,99.90
2023-05-20T06:02:06.828Z,99.90
2023-05-20T06:04:33.771Z,99.90
2023-05-20T06:07:00.628Z,99.90
2023-05-20T06:09:27.845Z,99.90
2023-05-20T06:11:55.285Z,99.90
2023-05-20T06:14:22.330Z,99.90
2023-05-20T06:16:49.267Z,99.90
2023-05-20T06:19:18.205Z,99.90
2023-05-20T06:21:45.462Z,99.90
2023-05-20T06:24:12.424Z,99.90
2023-05-20T06:26:39.342Z,99.90
2023-05-20T06:29:06.293Z,99.90
2023-05-20T06:31:33.717Z,99.90
2023-05-20T06:34:00.566Z,99.90
2023-05-20T06:36:28.154Z,99.90
2023-05-20T06:38:55.220Z,99.90
2023-05-20T06:41:22.500Z,99.90
2023-05-20T06:43:53.217Z,99.90
2023-05-20T06:46:51.296Z,99.90
2023-05-20T06:49:18.307Z,99.90
2023-05-20T06:51:45.479Z,99.90
2023-05-20T06:54:12.452Z,99.90
2023-05-20T06:56:39.355Z,99.90
2023-05-20T06:59:06.223Z,99.90
2023-05-20T07:01:35.024Z,99.90
2023-05-20T07:04:02.698Z,99.90
2023-05-20T07:06:31.511Z,99.90
2023-05-20T07:08:58.760Z,99.90
2023-05-20T07:11:26.806Z,99.90
2023-05-20T07:13:54.830Z,99.90
2023-05-20T07:16:23.455Z,99.90
2023-05-20T07:18:54.141Z,99.90
2023-05-20T07:21:21.228Z,99.90
2023-05-20T07:24:12.438Z,99.90
2023-05-20T07:26:39.711Z,99.90
2023-05-20T07:29:06.676Z,99.90
2023-05-20T07:31:34.834Z,99.90
2023-05-20T07:34:02.132Z,99.90
2023-05-20T07:36:29.510Z,99.90
2023-05-20T07:39:03.604Z,99.90
2023-05-20T07:41:35.398Z,99.90
2023-05-20T07:44:06.727Z,99.90
2023-05-20T07:46:35.763Z,99.90
2023-05-20T07:49:04.750Z,99.90
2023-05-20T07:51:32.046Z,99.90
2023-05-20T07:53:59.949Z,99.90
2023-05-20T07:56:27.136Z,99.90
2023-05-20T07:58:56.416Z,99.90
2023-05-20T08:01:26.067Z,99.90
2023-05-20T08:03:54.668Z,99.90
2023-05-20T08:06:29.454Z,99.90
2023-05-20T08:08:57.495Z,99.90
2023-05-20T08:11:36.274Z,99.90
2023-05-20T08:14:03.350Z,99.90
2023-05-20T08:16:37.373Z,99.90
2023-05-20T08:19:04.515Z,99.90
2023-05-20T08:21:31.459Z,99.90
2023-05-20T08:23:58.787Z,99.90
2023-05-20T08:26:26.846Z,99.90
2023-05-20T08:28:53.802Z,99.90
2023-05-20T08:31:21.089Z,99.90
2023-05-20T08:33:48.021Z,99.90
2023-05-20T08:36:14.979Z,99.90
2023-05-20T08:38:41.938Z,99.90
2023-05-20T08:41:08.970Z,99.90
2023-05-20T08:43:38.376Z,99.90
2023-05-20T08:46:06.976Z,99.90
2023-05-20T08:48:36.164Z,99.90
2023-05-20T08:51:04.826Z,99.90
2023-05-20T08:53:31.780Z,99.90
2023-05-20T08:56:03.867Z,99.90
2023-05-20T08:58:32.770Z,99.90
2023-05-20T09:01:00.030Z,99.90
2023-05-20T09:03:27.163Z,99.90
2023-05-20T09:05:54.621Z,99.90
2023-05-20T09:08:29.052Z,99.90
2023-05-20T09:10:56.058Z,99.90
2023-05-20T09:13:24.654Z,99.90
2023-05-20T09:15:51.820Z,99.90
2023-05-20T09:18:18.900Z,99.90
2023-05-20T09:20:48.101Z,99.90
2023-05-20T09:23:15.046Z,99.90
2023-05-20T09:25:42.089Z,99.90
2023-05-20T09:28:09.993Z,99.90
2023-05-20T09:30:36.892Z,99.90
2023-05-20T09:33:05.450Z,99.90
2023-05-20T09:35:37.552Z,99.90
2023-05-20T09:38:06.822Z,99.90
2023-05-20T09:40:33.925Z,99.90
2023-05-20T09:43:03.631Z,99.90
2023-05-20T09:45:31.289Z,99.90
2023-05-20T09:50:44.107Z,99.90
2023-05-20T09:53:12.188Z,99.90
2023-05-20T09:55:39.392Z,99.90
2023-05-20T09:58:06.857Z,99.90
2023-05-20T10:00:34.635Z,99.90
2023-05-20T10:03:02.241Z,99.90
2023-05-20T10:05:33.560Z,99.90
2023-05-20T10:08:18.443Z,99.90
2023-05-20T10:11:14.943Z,99.90
2023-05-20T10:14:07.058Z,99.90
2023-05-20T10:16:54.078Z,99.90
2023-05-20T11:49:21.251Z,99.90
2023-05-20T11:51:48.082Z,99.90
2023-05-20T11:54:14.849Z,99.90
2023-05-20T11:56:45.358Z,99.90
2023-05-20T11:59:12.151Z,99.90
2023-05-20T12:01:43.502Z,99.90
2023-05-20T12:04:11.225Z,99.90
2023-05-20T12:06:38.266Z,99.90
2023-05-20T12:09:07.382Z,99.90
2023-05-20T12:11:35.718Z,99.90
2023-05-20T12:14:04.000Z,99.90
2023-05-20T12:16:33.208Z,99.90
2023-05-20T12:19:01.029Z,99.90
2023-05-20T12:21:31.602Z,99.90
2023-05-20T12:23:59.791Z,99.90
2023-05-20T12:26:28.443Z,99.90
2023-05-20T12:28:56.077Z,99.90
2023-05-20T12:31:22.922Z,99.90
2023-05-20T12:33:49.818Z,99.90
2023-05-20T12:36:16.662Z,99.90
2023-05-20T12:38:43.443Z,99.90
2023-05-20T12:41:10.320Z,99.90
2023-05-20T12:43:37.692Z,99.90
2023-05-20T12:46:04.926Z,99.90
2023-05-20T12:48:32.081Z,99.90
2023-05-20T12:50:58.956Z,99.90
2023-05-20T12:53:25.712Z,99.90
2023-05-20T12:55:52.825Z,99.90
2023-05-20T12:58:19.920Z,99.90
2023-05-20T13:00:46.747Z,99.90
2023-05-20T13:03:13.790Z,99.90
2023-05-20T13:05:40.718Z,99.90
2023-05-20T13:08:09.091Z,99.90
2023-05-20T13:10:36.233Z,99.90
2023-05-20T13:13:03.241Z,99.90
2023-05-20T13:15:30.056Z,99.90
2023-05-20T13:17:57.192Z,99.90
2023-05-20T13:20:24.048Z,99.40
2023-05-20T13:22:51.080Z,99.90
2023-05-20T13:25:17.926Z,99.90
2023-05-20T13:27:44.699Z,99.40
2023-05-20T13:30:11.770Z,99.10
2023-05-20T13:32:38.623Z,98.90
2023-05-20T13:35:06.064Z,98.80
2023-05-20T13:37:32.915Z,98.50
2023-05-20T13:39:59.700Z,98.40
2023-05-20T13:42:26.678Z,98.50
2023-05-20T13:44:53.457Z,98.30
2023-05-20T13:47:20.312Z,97.80
2023-05-20T13:49:47.106Z,97.70
2023-05-20T13:52:13.869Z,97.80
2023-05-20T13:54:42.876Z,98.20
2023-05-20T13:57:09.660Z,97.60
2023-05-20T13:59:36.454Z,97.90
2023-05-20T14:02:03.577Z,98.10
2023-05-20T14:04:31.408Z,97.90
2023-05-20T14:06:59.339Z,97.80
2023-05-20T14:09:26.468Z,97.70
2023-05-20T14:11:53.465Z,97.90
2023-05-20T14:14:20.480Z,97.80
2023-05-20T14:16:47.582Z,97.80
2023-05-20T14:19:14.535Z,97.50
2023-05-20T14:21:41.294Z,97.60
2023-05-20T14:24:08.157Z,96.70
2023-05-20T14:26:34.928Z,97.30
2023-05-20T14:29:01.719Z,96.40
2023-05-20T14:31:28.715Z,96.20
2023-05-20T14:33:55.573Z,96.20
2023-05-20T14:36:22.412Z,96.60
2023-05-20T14:38:49.832Z,96.30
2023-05-20T14:41:16.885Z,96.50
2023-05-20T14:43:43.807Z,96.80
2023-05-20T14:46:11.060Z,96.70
2023-05-20T14:48:37.983Z,96.70
2023-05-20T14:51:04.940Z,97.00
2023-05-20T14:53:31.760Z,97.40
2023-05-20T14:55:58.554Z,97.40
2023-05-20T14:58:25.529Z,96.80
2023-05-20T15:00:55.889Z,96.70
2023-05-20T15:03:24.417Z,96.70
2023-05-20T15:05:51.330Z,96.80
2023-05-20T15:08:18.235Z,96.80
2023-05-20T15:10:45.088Z,96.80
2023-05-20T15:13:11.941Z,96.30
2023-05-20T15:15:38.810Z,96.40
2023-05-20T15:18:05.596Z,96.10
2023-05-20T15:20:32.432Z,95.40
2023-05-20T15:23:00.373Z,94.80
2023-05-20T15:25:27.818Z,93.30
2023-05-20T15:27:54.602Z,91.90
2023-05-20T15:30:22.703Z,91.50
2023-05-20T15:32:49.777Z,91.30
2023-05-20T15:35:16.739Z,91.70
2023-05-20T15:37:43.548Z,91.00
2023-05-20T15:40:11.260Z,90.90
2023-05-20T15:42:38.054Z,90.00
2023-05-20T15:45:05.202Z,89.50
2023-05-20T15:47:32.005Z,90.20
2023-05-20T15:49:58.993Z,90.60
2023-05-20T15:52:25.814Z,89.70
2023-05-20T15:54:52.659Z,86.70
2023-05-20T15:57:19.615Z,83.60
2023-05-20T15:59:46.487Z,82.50
2023-05-20T16:02:13.373Z,80.50
2023-05-20T16:04:40.230Z,78.00
2023-05-20T16:07:07.033Z,78.70
2023-05-20T16:09:34.002Z,80.70
2023-05-20T16:12:00.829Z,83.40
2023-05-20T16:14:27.618Z,85.00
2023-05-20T16:16:54.465Z,86.90
2023-05-20T16:19:21.310Z,89.00
2023-05-20T16:21:48.143Z,88.90
2023-05-20T16:24:15.623Z,90.30
2023-05-20T16:26:42.552Z,91.00
2023-05-20T16:29:09.324Z,91.70
2023-05-20T16:31:36.138Z,91.60
2023-05-20T16:34:03.949Z,91.00
2023-05-20T16:36:31.029Z,90.50
2023-05-20T16:38:57.803Z,90.60
2023-05-20T16:41:24.603Z,90.20
2023-05-20T16:43:51.374Z,88.90
2023-05-20T16:46:18.174Z,86.90
2023-05-20T16:48:44.960Z,83.50
2023-05-20T16:51:11.935Z,81.70
2023-05-20T16:53:38.782Z,82.50
2023-05-20T16:56:08.976Z,83.40
2023-05-20T16:58:35.857Z,84.30
2023-05-20T17:01:02.765Z,85.00
2023-05-20T17:03:30.179Z,86.00
2023-05-20T17:05:57.211Z,88.10
2023-05-20T17:08:24.216Z,90.00
2023-05-20T17:10:53.969Z,90.70
2023-05-20T17:13:21.461Z,91.00
2023-05-20T17:15:48.371Z,91.40
